sensor_id;sensor_type;location;lat;lon;timestamp;P1;durP1;ratioP1;P2;durP2;ratioP2
20671;SDS011;10495;50.922;4.760;2023-06-10T00:01:24;10.43;;;9.35;;
20671;SDS011;10495;50.922;4.760;2023-06-10T00:03:50;9.90;;;8.90;;
20671;SDS011;10495;50.922;4.760;2023-06-10T00:06:19;10.38;;;9.38;;
20671;SDS011;10495;50.922;4.760;2023-06-10T00:08:46;10.82;;;9.63;;
20671;SDS011;10495;50.922;4.760;2023-06-10T00:11:12;12.73;;;9.95;;
20671;SDS011;10495;50.922;4.760;2023-06-10T00:13:38;13.20;;;9.65;;
20671;SDS011;10495;50.922;4.760;2023-06-10T00:16:03;11.02;;;9.77;;
20671;SDS011;10495;50.922;4.760;2023-06-10T00:18:29;10.77;;;9.50;;
20671;SDS011;10495;50.922;4.760;2023-06-10T00:20:56;10.35;;;9.45;;
20671;SDS011;10495;50.922;4.760;2023-06-10T00:23:22;10.48;;;9.48;;
20671;SDS011;10495;50.922;4.760;2023-06-10T00:25:50;10.18;;;9.10;;
20671;SDS011;10495;50.922;4.760;2023-06-10T00:28:15;10.13;;;9.20;;
20671;SDS011;10495;50.922;4.760;2023-06-10T00:30:41;12.05;;;10.00;;
20671;SDS011;10495;50.922;4.760;2023-06-10T00:33:06;11.73;;;10.18;;
20671;SDS011;10495;50.922;4.760;2023-06-10T00:35:32;11.30;;;9.70;;
20671;SDS011;10495;50.922;4.760;2023-06-10T00:37:58;10.30;;;9.18;;
20671;SDS011;10495;50.922;4.760;2023-06-10T00:40:23;9.50;;;8.60;;
20671;SDS011;10495;50.922;4.760;2023-06-10T00:42:49;9.35;;;8.35;;
20671;SDS011;10495;50.922;4.760;2023-06-10T00:45:14;10.05;;;9.18;;
20671;SDS011;10495;50.922;4.760;2023-06-10T00:47:40;12.88;;;10.50;;
20671;SDS011;10495;50.922;4.760;2023-06-10T00:50:06;10.88;;;9.50;;
20671;SDS011;10495;50.922;4.760;2023-06-10T00:52:32;10.73;;;9.63;;
20671;SDS011;10495;50.922;4.760;2023-06-10T00:54:59;10.88;;;9.88;;
20671;SDS011;10495;50.922;4.760;2023-06-10T00:57:25;10.80;;;9.80;;
20671;SDS011;10495;50.922;4.760;2023-06-10T00:59:51;10.55;;;9.55;;
20671;SDS011;10495;50.922;4.760;2023-06-10T01:02:17;11.57;;;10.38;;
20671;SDS011;10495;50.922;4.760;2023-06-10T01:04:43;10.40;;;9.50;;
20671;SDS011;10495;50.922;4.760;2023-06-10T01:12:34;11.02;;;9.52;;
20671;SDS011;10495;50.922;4.760;2023-06-10T01:15:12;10.95;;;9.85;;
20671;SDS011;10495;50.922;4.760;2023-06-10T01:17:56;15.88;;;10.80;;
20671;SDS011;10495;50.922;4.760;2023-06-10T01:20:23;10.43;;;9.43;;
20671;SDS011;10495;50.922;4.760;2023-06-10T01:22:53;12.10;;;10.75;;
20671;SDS011;10495;50.922;4.760;2023-06-10T01:25:20;11.48;;;10.30;;
20671;SDS011;10495;50.922;4.760;2023-06-10T01:28:14;11.35;;;10.23;;
20671;SDS011;10495;50.922;4.760;2023-06-10T01:33:26;12.40;;;11.10;;
20671;SDS011;10495;50.922;4.760;2023-06-10T01:35:55;12.30;;;11.10;;
20671;SDS011;10495;50.922;4.760;2023-06-10T01:38:26;12.00;;;10.82;;
20671;SDS011;10495;50.922;4.760;2023-06-10T01:40:55;13.15;;;11.02;;
20671;SDS011;10495;50.922;4.760;2023-06-10T01:43:21;13.20;;;11.57;;
20671;SDS011;10495;50.922;4.760;2023-06-10T01:45:47;11.60;;;10.50;;
20671;SDS011;10495;50.922;4.760;2023-06-10T01:48:13;12.70;;;11.50;;
20671;SDS011;10495;50.922;4.760;2023-06-10T01:50:38;13.27;;;11.52;;
20671;SDS011;10495;50.922;4.760;2023-06-10T01:53:04;12.45;;;11.25;;
20671;SDS011;10495;50.922;4.760;2023-06-10T01:55:33;12.82;;;11.48;;
20671;SDS011;10495;50.922;4.760;2023-06-10T01:57:58;12.95;;;11.40;;
20671;SDS011;10495;50.922;4.760;2023-06-10T02:00:24;11.85;;;10.70;;
20671;SDS011;10495;50.922;4.760;2023-06-10T02:02:49;12.15;;;10.85;;
20671;SDS011;10495;50.922;4.760;2023-06-10T02:05:15;12.57;;;11.43;;
20671;SDS011;10495;50.922;4.760;2023-06-10T02:07:41;11.50;;;10.40;;
20671;SDS011;10495;50.922;4.760;2023-06-10T02:10:07;10.88;;;9.90;;
20671;SDS011;10495;50.922;4.760;2023-06-10T02:12:33;12.77;;;11.35;;
20671;SDS011;10495;50.922;4.760;2023-06-10T02:14:58;13.65;;;11.50;;
20671;SDS011;10495;50.922;4.760;2023-06-10T02:17:24;14.43;;;10.93;;
20671;SDS011;10495;50.922;4.760;2023-06-10T02:19:50;12.83;;;11.53;;
20671;SDS011;10495;50.922;4.760;2023-06-10T02:22:21;13.43;;;12.07;;
20671;SDS011;10495;50.922;4.760;2023-06-10T02:24:47;12.73;;;11.43;;
20671;SDS011;10495;50.922;4.760;2023-06-10T02:27:13;13.10;;;11.85;;
20671;SDS011;10495;50.922;4.760;2023-06-10T02:29:39;16.92;;;12.50;;
20671;SDS011;10495;50.922;4.760;2023-06-10T02:32:06;14.23;;;12.77;;
20671;SDS011;10495;50.922;4.760;2023-06-10T02:34:32;12.32;;;11.13;;
20671;SDS011;10495;50.922;4.760;2023-06-10T02:36:58;12.30;;;11.10;;
20671;SDS011;10495;50.922;4.760;2023-06-10T02:39:24;12.90;;;11.50;;
20671;SDS011;10495;50.922;4.760;2023-06-10T02:41:50;15.23;;;11.67;;
20671;SDS011;10495;50.922;4.760;2023-06-10T02:44:18;14.13;;;12.13;;
20671;SDS011;10495;50.922;4.760;2023-06-10T02:46:43;13.38;;;12.05;;
20671;SDS011;10495;50.922;4.760;2023-06-10T02:49:09;14.02;;;12.55;;
20671;SDS011;10495;50.922;4.760;2023-06-10T02:51:35;14.17;;;12.53;;
20671;SDS011;10495;50.922;4.760;2023-06-10T02:54:01;14.47;;;12.20;;
20671;SDS011;10495;50.922;4.760;2023-06-10T02:56:27;14.67;;;12.67;;
20671;SDS011;10495;50.922;4.760;2023-06-10T02:58:52;12.45;;;11.25;;
20671;SDS011;10495;50.922;4.760;2023-06-10T03:01:18;15.50;;;12.90;;
20671;SDS011;10495;50.922;4.760;2023-06-10T03:03:44;13.40;;;12.07;;
20671;SDS011;10495;50.922;4.760;2023-06-10T03:06:11;15.80;;;14.07;;
20671;SDS011;10495;50.922;4.760;2023-06-10T03:08:38;13.83;;;11.93;;
20671;SDS011;10495;50.922;4.760;2023-06-10T03:11:04;15.50;;;12.00;;
20671;SDS011;10495;50.922;4.760;2023-06-10T03:13:30;13.50;;;12.18;;
20671;SDS011;10495;50.922;4.760;2023-06-10T03:15:55;15.30;;;12.53;;
20671;SDS011;10495;50.922;4.760;2023-06-10T03:18:21;15.00;;;13.47;;
20671;SDS011;10495;50.922;4.760;2023-06-10T03:20:51;16.47;;;13.93;;
20671;SDS011;10495;50.922;4.760;2023-06-10T03:23:16;14.20;;;12.80;;
20671;SDS011;10495;50.922;4.760;2023-06-10T03:25:43;13.10;;;11.70;;
20671;SDS011;10495;50.922;4.760;2023-06-10T03:28:09;13.13;;;11.63;;
20671;SDS011;10495;50.922;4.760;2023-06-10T03:30:35;13.00;;;11.70;;
20671;SDS011;10495;50.922;4.760;2023-06-10T03:33:01;14.20;;;12.77;;
20671;SDS011;10495;50.922;4.760;2023-06-10T03:35:26;14.23;;;12.37;;
20671;SDS011;10495;50.922;4.760;2023-06-10T03:37:52;14.30;;;12.83;;
20671;SDS011;10495;50.922;4.760;2023-06-10T03:40:17;16.57;;;13.93;;
20671;SDS011;10495;50.922;4.760;2023-06-10T03:42:43;17.83;;;13.20;;
20671;SDS011;10495;50.922;4.760;2023-06-10T03:45:09;17.10;;;13.53;;
20671;SDS011;10495;50.922;4.760;2023-06-10T03:47:35;14.73;;;13.27;;
20671;SDS011;10495;50.922;4.760;2023-06-10T03:50:05;16.47;;;13.57;;
20671;SDS011;10495;50.922;4.760;2023-06-10T03:52:31;16.03;;;14.47;;
20671;SDS011;10495;50.922;4.760;2023-06-10T03:54:57;15.93;;;14.33;;
20671;SDS011;10495;50.922;4.760;2023-06-10T03:57:22;16.33;;;13.77;;
20671;SDS011;10495;50.922;4.760;2023-06-10T03:59:48;16.80;;;13.43;;
20671;SDS011;10495;50.922;4.760;2023-06-10T04:02:14;19.43;;;14.23;;
20671;SDS011;10495;50.922;4.760;2023-06-10T04:04:39;14.70;;;13.07;;
20671;SDS011;10495;50.922;4.760;2023-06-10T04:07:06;15.73;;;14.23;;
20671;SDS011;10495;50.922;4.760;2023-06-10T04:09:33;17.47;;;14.37;;
20671;SDS011;10495;50.922;4.760;2023-06-10T04:11:59;14.50;;;13.02;;
20671;SDS011;10495;50.922;4.760;2023-06-10T04:14:24;16.90;;;13.30;;
20671;SDS011;10495;50.922;4.760;2023-06-10T04:16:50;16.07;;;14.37;;
20671;SDS011;10495;50.922;4.760;2023-06-10T04:19:16;16.33;;;14.20;;
20671;SDS011;10495;50.922;4.760;2023-06-10T04:21:42;14.83;;;13.37;;
20671;SDS011;10495;50.922;4.760;2023-06-10T04:24:07;15.07;;;13.57;;
20671;SDS011;10495;50.922;4.760;2023-06-10T04:26:34;15.47;;;13.97;;
20671;SDS011;10495;50.922;4.760;2023-06-10T04:29:01;15.00;;;13.50;;
20671;SDS011;10495;50.922;4.760;2023-06-10T04:31:26;17.60;;;13.63;;
20671;SDS011;10495;50.922;4.760;2023-06-10T04:33:52;15.97;;;13.57;;
20671;SDS011;10495;50.922;4.760;2023-06-10T04:36:18;17.53;;;14.70;;
20671;SDS011;10495;50.922;4.760;2023-06-10T04:38:44;16.37;;;13.60;;
20671;SDS011;10495;50.922;4.760;2023-06-10T04:41:10;16.57;;;14.43;;
20671;SDS011;10495;50.922;4.760;2023-06-10T04:43:36;17.07;;;14.53;;
20671;SDS011;10495;50.922;4.760;2023-06-10T04:46:01;15.17;;;13.57;;
20671;SDS011;10495;50.922;4.760;2023-06-10T04:48:27;15.60;;;14.00;;
20671;SDS011;10495;50.922;4.760;2023-06-10T04:50:53;14.63;;;13.20;;
20671;SDS011;10495;50.922;4.760;2023-06-10T04:53:18;15.03;;;13.53;;
20671;SDS011;10495;50.922;4.760;2023-06-10T04:55:44;15.40;;;13.80;;
20671;SDS011;10495;50.922;4.760;2023-06-10T04:58:10;17.02;;;15.23;;
20671;SDS011;10495;50.922;4.760;2023-06-10T05:00:35;15.80;;;14.17;;
20671;SDS011;10495;50.922;4.760;2023-06-10T05:03:01;15.73;;;14.13;;
20671;SDS011;10495;50.922;4.760;2023-06-10T05:05:27;16.05;;;14.45;;
20671;SDS011;10495;50.922;4.760;2023-06-10T05:07:52;17.17;;;15.10;;
20671;SDS011;10495;50.922;4.760;2023-06-10T05:10:18;15.65;;;13.45;;
20671;SDS011;10495;50.922;4.760;2023-06-10T05:12:43;14.88;;;13.25;;
20671;SDS011;10495;50.922;4.760;2023-06-10T05:15:09;13.35;;;11.95;;
20671;SDS011;10495;50.922;4.760;2023-06-10T05:17:35;15.63;;;12.60;;
20671;SDS011;10495;50.922;4.760;2023-06-10T05:20:01;14.20;;;12.30;;
20671;SDS011;10495;50.922;4.760;2023-06-10T05:22:28;14.65;;;12.90;;
20671;SDS011;10495;50.922;4.760;2023-06-10T05:24:53;14.43;;;13.02;;
20671;SDS011;10495;50.922;4.760;2023-06-10T05:27:19;13.93;;;12.55;;
20671;SDS011;10495;50.922;4.760;2023-06-10T05:29:44;14.80;;;12.40;;
20671;SDS011;10495;50.922;4.760;2023-06-10T05:32:10;13.70;;;11.85;;
20671;SDS011;10495;50.922;4.760;2023-06-10T05:34:36;16.00;;;12.05;;
20671;SDS011;10495;50.922;4.760;2023-06-10T05:37:02;13.77;;;12.30;;
20671;SDS011;10495;50.922;4.760;2023-06-10T05:39:28;12.90;;;11.70;;
20671;SDS011;10495;50.922;4.760;2023-06-10T05:41:54;12.68;;;11.48;;
20671;SDS011;10495;50.922;4.760;2023-06-10T05:44:20;13.48;;;12.07;;
20671;SDS011;10495;50.922;4.760;2023-06-10T05:46:45;14.77;;;11.18;;
20671;SDS011;10495;50.922;4.760;2023-06-10T05:49:11;13.38;;;11.98;;
20671;SDS011;10495;50.922;4.760;2023-06-10T05:51:36;12.95;;;11.75;;
20671;SDS011;10495;50.922;4.760;2023-06-10T05:54:03;12.25;;;10.90;;
20671;SDS011;10495;50.922;4.760;2023-06-10T05:56:28;15.82;;;11.88;;
20671;SDS011;10495;50.922;4.760;2023-06-10T05:58:54;14.38;;;12.98;;
20671;SDS011;10495;50.922;4.760;2023-06-10T06:01:20;15.82;;;12.25;;
20671;SDS011;10495;50.922;4.760;2023-06-10T06:03:46;12.40;;;11.25;;
20671;SDS011;10495;50.922;4.760;2023-06-10T06:06:12;16.80;;;12.02;;
20671;SDS011;10495;50.922;4.760;2023-06-10T06:08:37;13.68;;;12.27;;
20671;SDS011;10495;50.922;4.760;2023-06-10T06:11:03;13.20;;;11.90;;
20671;SDS011;10495;50.922;4.760;2023-06-10T06:13:28;13.05;;;11.65;;
20671;SDS011;10495;50.922;4.760;2023-06-10T06:15:54;13.10;;;11.80;;
20671;SDS011;10495;50.922;4.760;2023-06-10T06:18:20;12.93;;;11.63;;
20671;SDS011;10495;50.922;4.760;2023-06-10T06:20:45;12.77;;;11.05;;
20671;SDS011;10495;50.922;4.760;2023-06-10T06:23:11;12.50;;;11.30;;
20671;SDS011;10495;50.922;4.760;2023-06-10T06:25:36;11.57;;;10.52;;
20671;SDS011;10495;50.922;4.760;2023-06-10T06:28:05;12.50;;;10.57;;
20671;SDS011;10495;50.922;4.760;2023-06-10T06:30:31;14.52;;;11.27;;
20671;SDS011;10495;50.922;4.760;2023-06-10T06:32:57;11.90;;;10.60;;
20671;SDS011;10495;50.922;4.760;2023-06-10T06:35:22;11.57;;;10.38;;
20671;SDS011;10495;50.922;4.760;2023-06-10T06:37:48;12.80;;;11.50;;
20671;SDS011;10495;50.922;4.760;2023-06-10T06:40:13;11.13;;;10.00;;
20671;SDS011;10495;50.922;4.760;2023-06-10T06:42:39;10.88;;;9.93;;
20671;SDS011;10495;50.922;4.760;2023-06-10T06:45:05;10.95;;;9.80;;
20671;SDS011;10495;50.922;4.760;2023-06-10T06:47:31;11.98;;;9.75;;
20671;SDS011;10495;50.922;4.760;2023-06-10T06:49:56;13.05;;;9.77;;
20671;SDS011;10495;50.922;4.760;2023-06-10T06:52:22;10.80;;;9.75;;
20671;SDS011;10495;50.922;4.760;2023-06-10T06:54:47;9.85;;;8.95;;
20671;SDS011;10495;50.922;4.760;2023-06-10T06:57:13;11.20;;;10.00;;
20671;SDS011;10495;50.922;4.760;2023-06-10T06:59:39;12.20;;;10.43;;
20671;SDS011;10495;50.922;4.760;2023-06-10T07:02:05;12.65;;;10.13;;
20671;SDS011;10495;50.922;4.760;2023-06-10T07:04:31;11.73;;;10.20;;
20671;SDS011;10495;50.922;4.760;2023-06-10T07:06:56;10.15;;;8.95;;
20671;SDS011;10495;50.922;4.760;2023-06-10T07:09:22;10.88;;;9.90;;
20671;SDS011;10495;50.922;4.760;2023-06-10T07:11:47;10.73;;;9.63;;
20671;SDS011;10495;50.922;4.760;2023-06-10T07:14:13;10.95;;;9.50;;
20671;SDS011;10495;50.922;4.760;2023-06-10T07:16:39;13.07;;;10.32;;
20671;SDS011;10495;50.922;4.760;2023-06-10T07:19:04;11.48;;;10.27;;
20671;SDS011;10495;50.922;4.760;2023-06-10T07:21:30;10.27;;;9.27;;
20671;SDS011;10495;50.922;4.760;2023-06-10T07:23:57;11.68;;;10.45;;
20671;SDS011;10495;50.922;4.760;2023-06-10T07:26:23;12.20;;;9.05;;
20671;SDS011;10495;50.922;4.760;2023-06-10T07:28:48;8.95;;;8.25;;
20671;SDS011;10495;50.922;4.760;2023-06-10T07:31:15;11.45;;;9.07;;
20671;SDS011;10495;50.922;4.760;2023-06-10T07:33:41;11.35;;;9.23;;
20671;SDS011;10495;50.922;4.760;2023-06-10T07:36:08;10.73;;;9.30;;
20671;SDS011;10495;50.922;4.760;2023-06-10T07:38:34;9.55;;;8.40;;
20671;SDS011;10495;50.922;4.760;2023-06-10T07:41:00;12.10;;;8.90;;
20671;SDS011;10495;50.922;4.760;2023-06-10T07:43:26;9.40;;;8.50;;
20671;SDS011;10495;50.922;4.760;2023-06-10T07:45:52;10.45;;;8.40;;
20671;SDS011;10495;50.922;4.760;2023-06-10T07:48:17;9.48;;;8.68;;
20671;SDS011;10495;50.922;4.760;2023-06-10T07:50:43;10.00;;;9.10;;
20671;SDS011;10495;50.922;4.760;2023-06-10T07:53:09;11.75;;;8.85;;
20671;SDS011;10495;50.922;4.760;2023-06-10T07:55:35;11.95;;;9.40;;
20671;SDS011;10495;50.922;4.760;2023-06-10T07:58:00;9.25;;;8.40;;
20671;SDS011;10495;50.922;4.760;2023-06-10T08:00:26;9.75;;;8.82;;
20671;SDS011;10495;50.922;4.760;2023-06-10T08:02:52;11.32;;;9.02;;
20671;SDS011;10495;50.922;4.760;2023-06-10T08:05:18;9.07;;;8.18;;
20671;SDS011;10495;50.922;4.760;2023-06-10T08:07:44;10.18;;;8.20;;
20671;SDS011;10495;50.922;4.760;2023-06-10T08:10:10;9.90;;;8.68;;
20671;SDS011;10495;50.922;4.760;2023-06-10T08:12:35;9.07;;;7.85;;
20671;SDS011;10495;50.922;4.760;2023-06-10T08:15:01;12.20;;;8.48;;
20671;SDS011;10495;50.922;4.760;2023-06-10T08:17:29;9.57;;;8.60;;
20671;SDS011;10495;50.922;4.760;2023-06-10T08:19:57;11.15;;;8.48;;
20671;SDS011;10495;50.922;4.760;2023-06-10T08:22:23;8.90;;;8.00;;
20671;SDS011;10495;50.922;4.760;2023-06-10T08:24:48;10.57;;;8.95;;
20671;SDS011;10495;50.922;4.760;2023-06-10T08:27:14;10.75;;;8.30;;
20671;SDS011;10495;50.922;4.760;2023-06-10T08:29:40;9.07;;;8.20;;
20671;SDS011;10495;50.922;4.760;2023-06-10T08:32:06;9.35;;;8.40;;
20671;SDS011;10495;50.922;4.760;2023-06-10T08:34:34;10.27;;;8.18;;
20671;SDS011;10495;50.922;4.760;2023-06-10T08:37:01;8.90;;;7.85;;
20671;SDS011;10495;50.922;4.760;2023-06-10T08:39:27;8.25;;;7.47;;
20671;SDS011;10495;50.922;4.760;2023-06-10T08:42:17;10.18;;;8.55;;
20671;SDS011;10495;50.922;4.760;2023-06-10T08:44:58;8.95;;;7.75;;
20671;SDS011;10495;50.922;4.760;2023-06-10T08:47:27;8.70;;;7.93;;
20671;SDS011;10495;50.922;4.760;2023-06-10T08:49:56;9.10;;;8.25;;
20671;SDS011;10495;50.922;4.760;2023-06-10T08:52:28;8.10;;;7.40;;
20671;SDS011;10495;50.922;4.760;2023-06-10T08:54:59;10.80;;;8.27;;
20671;SDS011;10495;50.922;4.760;2023-06-10T08:57:27;9.60;;;7.80;;
20671;SDS011;10495;50.922;4.760;2023-06-10T08:59:53;8.10;;;7.22;;
20671;SDS011;10495;50.922;4.760;2023-06-10T09:02:20;8.38;;;7.57;;
20671;SDS011;10495;50.922;4.760;2023-06-10T09:04:48;8.68;;;7.03;;
20671;SDS011;10495;50.922;4.760;2023-06-10T09:07:17;9.75;;;7.60;;
20671;SDS011;10495;50.922;4.760;2023-06-10T09:09:43;11.00;;;8.13;;
20671;SDS011;10495;50.922;4.760;2023-06-10T09:12:10;11.52;;;8.95;;
20671;SDS011;10495;50.922;4.760;2023-06-10T09:14:37;8.43;;;7.63;;
20671;SDS011;10495;50.922;4.760;2023-06-10T09:17:03;8.52;;;7.63;;
20671;SDS011;10495;50.922;4.760;2023-06-10T09:19:30;8.77;;;7.90;;
20671;SDS011;10495;50.922;4.760;2023-06-10T09:21:55;11.40;;;7.88;;
20671;SDS011;10495;50.922;4.760;2023-06-10T09:24:24;8.75;;;7.90;;
20671;SDS011;10495;50.922;4.760;2023-06-10T09:26:50;8.65;;;7.85;;
20671;SDS011;10495;50.922;4.760;2023-06-10T09:29:27;8.50;;;7.82;;
20671;SDS011;10495;50.922;4.760;2023-06-10T09:31:53;8.57;;;7.78;;
20671;SDS011;10495;50.922;4.760;2023-06-10T09:34:19;9.68;;;8.02;;
20671;SDS011;10495;50.922;4.760;2023-06-10T09:36:49;11.25;;;8.48;;
20671;SDS011;10495;50.922;4.760;2023-06-10T09:39:16;8.38;;;7.63;;
20671;SDS011;10495;50.922;4.760;2023-06-10T09:41:42;8.60;;;7.85;;
20671;SDS011;10495;50.922;4.760;2023-06-10T09:44:19;8.93;;;8.05;;
20671;SDS011;10495;50.922;4.760;2023-06-10T09:46:46;9.55;;;8.65;;
20671;SDS011;10495;50.922;4.760;2023-06-10T09:49:14;9.13;;;8.32;;
20671;SDS011;10495;50.922;4.760;2023-06-10T09:51:50;8.65;;;7.78;;
20671;SDS011;10495;50.922;4.760;2023-06-10T09:54:20;8.85;;;8.05;;
20671;SDS011;10495;50.922;4.760;2023-06-10T09:56:48;9.00;;;7.70;;
20671;SDS011;10495;50.922;4.760;2023-06-10T09:59:29;8.43;;;7.63;;
20671;SDS011;10495;50.922;4.760;2023-06-10T10:01:56;12.38;;;7.85;;
20671;SDS011;10495;50.922;4.760;2023-06-10T10:04:26;9.02;;;8.10;;
20671;SDS011;10495;50.922;4.760;2023-06-10T10:06:53;11.40;;;8.48;;
20671;SDS011;10495;50.922;4.760;2023-06-10T10:09:19;8.80;;;7.90;;
20671;SDS011;10495;50.922;4.760;2023-06-10T10:11:44;8.43;;;7.65;;
20671;SDS011;10495;50.922;4.760;2023-06-10T10:14:11;7.60;;;6.93;;
20671;SDS011;10495;50.922;4.760;2023-06-10T10:16:40;8.88;;;7.88;;
20671;SDS011;10495;50.922;4.760;2023-06-10T10:21:53;8.73;;;7.57;;
20671;SDS011;10495;50.922;4.760;2023-06-10T10:24:23;10.18;;;8.43;;
20671;SDS011;10495;50.922;4.760;2023-06-10T10:26:54;8.73;;;7.82;;
20671;SDS011;10495;50.922;4.760;2023-06-10T10:29:35;8.68;;;7.88;;
20671;SDS011;10495;50.922;4.760;2023-06-10T10:32:03;8.13;;;7.18;;
20671;SDS011;10495;50.922;4.760;2023-06-10T10:34:36;10.40;;;8.35;;
20671;SDS011;10495;50.922;4.760;2023-06-10T10:37:10;9.75;;;8.25;;
20671;SDS011;10495;50.922;4.760;2023-06-10T10:39:35;8.75;;;7.95;;
20671;SDS011;10495;50.922;4.760;2023-06-10T10:42:02;11.43;;;9.73;;
20671;SDS011;10495;50.922;4.760;2023-06-10T10:44:29;8.27;;;7.47;;
20671;SDS011;10495;50.922;4.760;2023-06-10T10:46:56;15.43;;;8.45;;
20671;SDS011;10495;50.922;4.760;2023-06-10T10:49:23;9.40;;;8.55;;
20671;SDS011;10495;50.922;4.760;2023-06-10T10:51:54;18.80;;;8.45;;
20671;SDS011;10495;50.922;4.760;2023-06-10T10:54:27;9.40;;;7.82;;
20671;SDS011;10495;50.922;4.760;2023-06-10T11:02:34;10.02;;;8.88;;
20671;SDS011;10495;50.922;4.760;2023-06-10T11:05:02;10.98;;;8.15;;
20671;SDS011;10495;50.922;4.760;2023-06-10T11:07:29;10.07;;;7.95;;
20671;SDS011;10495;50.922;4.760;2023-06-10T11:10:12;8.50;;;7.57;;
20671;SDS011;10495;50.922;4.760;2023-06-10T11:15:10;10.20;;;7.85;;
20671;SDS011;10495;50.922;4.760;2023-06-10T11:17:36;8.85;;;8.02;;
20671;SDS011;10495;50.922;4.760;2023-06-10T11:20:02;18.02;;;9.48;;
20671;SDS011;10495;50.922;4.760;2023-06-10T11:22:28;9.73;;;7.45;;
20671;SDS011;10495;50.922;4.760;2023-06-10T11:24:53;9.18;;;7.22;;
20671;SDS011;10495;50.922;4.760;2023-06-10T11:27:22;7.78;;;6.95;;
20671;SDS011;10495;50.922;4.760;2023-06-10T11:30:34;9.95;;;8.13;;
20671;SDS011;10495;50.922;4.760;2023-06-10T11:32:44;9.50;;;8.10;;
20671;SDS011;10495;50.922;4.760;2023-06-10T11:35:15;9.07;;;7.72;;
20671;SDS011;10495;50.922;4.760;2023-06-10T11:37:41;10.57;;;7.93;;
20671;SDS011;10495;50.922;4.760;2023-06-10T11:40:07;8.52;;;7.78;;
20671;SDS011;10495;50.922;4.760;2023-06-10T11:42:37;9.85;;;7.43;;
20671;SDS011;10495;50.922;4.760;2023-06-10T11:45:05;8.73;;;7.22;;
20671;SDS011;10495;50.922;4.760;2023-06-10T11:47:33;8.07;;;7.28;;
20671;SDS011;10495;50.922;4.760;2023-06-10T11:49:59;8.65;;;7.47;;
20671;SDS011;10495;50.922;4.760;2023-06-10T11:52:31;8.50;;;7.22;;
20671;SDS011;10495;50.922;4.760;2023-06-10T11:55:03;11.13;;;7.28;;
20671;SDS011;10495;50.922;4.760;2023-06-10T11:57:30;10.35;;;6.72;;
20671;SDS011;10495;50.922;4.760;2023-06-10T12:00:03;8.93;;;6.75;;
20671;SDS011;10495;50.922;4.760;2023-06-10T12:02:33;10.68;;;7.20;;
20671;SDS011;10495;50.922;4.760;2023-06-10T12:05:12;8.63;;;7.78;;
20671;SDS011;10495;50.922;4.760;2023-06-10T12:07:38;7.63;;;6.55;;
20671;SDS011;10495;50.922;4.760;2023-06-10T12:10:03;7.30;;;6.60;;
20671;SDS011;10495;50.922;4.760;2023-06-10T12:12:29;6.63;;;6.07;;
20671;SDS011;10495;50.922;4.760;2023-06-10T12:17:35;7.18;;;6.47;;
20671;SDS011;10495;50.922;4.760;2023-06-10T12:20:03;6.97;;;6.28;;
20671;SDS011;10495;50.922;4.760;2023-06-10T12:22:39;7.07;;;6.47;;
20671;SDS011;10495;50.922;4.760;2023-06-10T12:25:06;9.95;;;7.07;;
20671;SDS011;10495;50.922;4.760;2023-06-10T12:27:34;11.63;;;6.95;;
20671;SDS011;10495;50.922;4.760;2023-06-10T12:30:01;8.85;;;6.80;;
20671;SDS011;10495;50.922;4.760;2023-06-10T12:35:04;7.93;;;7.00;;
20671;SDS011;10495;50.922;4.760;2023-06-10T12:37:31;8.90;;;6.82;;
20671;SDS011;10495;50.922;4.760;2023-06-10T12:40:03;7.00;;;6.47;;
20671;SDS011;10495;50.922;4.760;2023-06-10T12:42:36;7.97;;;7.22;;
20671;SDS011;10495;50.922;4.760;2023-06-10T12:45:03;8.48;;;7.68;;
20671;SDS011;10495;50.922;4.760;2023-06-10T12:47:33;10.07;;;7.03;;
20671;SDS011;10495;50.922;4.760;2023-06-10T12:50:00;7.60;;;6.88;;
20671;SDS011;10495;50.922;4.760;2023-06-10T12:52:27;8.00;;;7.15;;
20671;SDS011;10495;50.922;4.760;2023-06-10T12:54:53;7.32;;;6.63;;
20671;SDS011;10495;50.922;4.760;2023-06-10T12:57:19;8.85;;;7.18;;
20671;SDS011;10495;50.922;4.760;2023-06-10T12:59:46;8.65;;;7.35;;
20671;SDS011;10495;50.922;4.760;2023-06-10T13:02:17;9.93;;;7.65;;
20671;SDS011;10495;50.922;4.760;2023-06-10T13:04:43;8.43;;;7.53;;
20671;SDS011;10495;50.922;4.760;2023-06-10T13:07:09;7.65;;;6.95;;
20671;SDS011;10495;50.922;4.760;2023-06-10T13:09:35;9.60;;;7.97;;
20671;SDS011;10495;50.922;4.760;2023-06-10T13:12:01;7.85;;;7.05;;
20671;SDS011;10495;50.922;4.760;2023-06-10T13:14:27;7.38;;;6.63;;
20671;SDS011;10495;50.922;4.760;2023-06-10T13:16:53;8.73;;;6.75;;
20671;SDS011;10495;50.922;4.760;2023-06-10T13:19:20;8.35;;;7.50;;
20671;SDS011;10495;50.922;4.760;2023-06-10T13:21:46;7.82;;;7.10;;
20671;SDS011;10495;50.922;4.760;2023-06-10T13:24:12;8.13;;;7.32;;
20671;SDS011;10495;50.922;4.760;2023-06-10T13:26:38;8.73;;;7.80;;
20671;SDS011;10495;50.922;4.760;2023-06-10T13:29:04;8.52;;;7.05;;
20671;SDS011;10495;50.922;4.760;2023-06-10T13:31:30;10.70;;;7.68;;
20671;SDS011;10495;50.922;4.760;2023-06-10T13:33:57;10.73;;;7.10;;
20671;SDS011;10495;50.922;4.760;2023-06-10T13:36:23;8.50;;;7.45;;
20671;SDS011;10495;50.922;4.760;2023-06-10T13:38:49;8.20;;;7.13;;
20671;SDS011;10495;50.922;4.760;2023-06-10T13:41:14;12.48;;;8.50;;
20671;SDS011;10495;50.922;4.760;2023-06-10T13:43:40;10.27;;;8.48;;
20671;SDS011;10495;50.922;4.760;2023-06-10T13:46:06;10.35;;;7.20;;
20671;SDS011;10495;50.922;4.760;2023-06-10T13:48:32;8.25;;;7.35;;
20671;SDS011;10495;50.922;4.760;2023-06-10T13:50:58;8.20;;;7.40;;
20671;SDS011;10495;50.922;4.760;2023-06-10T13:53:24;10.23;;;7.82;;
20671;SDS011;10495;50.922;4.760;2023-06-10T13:55:50;7.70;;;7.00;;
20671;SDS011;10495;50.922;4.760;2023-06-10T13:58:15;8.85;;;7.45;;
20671;SDS011;10495;50.922;4.760;2023-06-10T14:00:41;8.32;;;7.50;;
20671;SDS011;10495;50.922;4.760;2023-06-10T14:03:07;8.07;;;7.38;;
20671;SDS011;10495;50.922;4.760;2023-06-10T14:05:32;7.70;;;7.00;;
20671;SDS011;10495;50.922;4.760;2023-06-10T14:07:58;10.98;;;7.57;;
20671;SDS011;10495;50.922;4.760;2023-06-10T14:10:24;8.13;;;7.43;;
20671;SDS011;10495;50.922;4.760;2023-06-10T14:12:49;8.15;;;7.05;;
20671;SDS011;10495;50.922;4.760;2023-06-10T14:15:16;7.68;;;6.93;;
20671;SDS011;10495;50.922;4.760;2023-06-10T14:17:42;8.43;;;7.63;;
20671;SDS011;10495;50.922;4.760;2023-06-10T14:20:07;7.82;;;7.13;;
20671;SDS011;10495;50.922;4.760;2023-06-10T14:22:33;10.10;;;6.70;;
20671;SDS011;10495;50.922;4.760;2023-06-10T14:24:59;7.45;;;6.82;;
20671;SDS011;10495;50.922;4.760;2023-06-10T14:27:25;7.93;;;7.22;;
20671;SDS011;10495;50.922;4.760;2023-06-10T14:29:50;7.78;;;7.07;;
20671;SDS011;10495;50.922;4.760;2023-06-10T14:32:16;9.68;;;7.15;;
20671;SDS011;10495;50.922;4.760;2023-06-10T14:34:41;8.40;;;6.57;;
20671;SDS011;10495;50.922;4.760;2023-06-10T14:37:09;8.15;;;6.85;;
20671;SDS011;10495;50.922;4.760;2023-06-10T14:39:35;10.10;;;7.13;;
20671;SDS011;10495;50.922;4.760;2023-06-10T14:42:01;7.47;;;6.78;;
20671;SDS011;10495;50.922;4.760;2023-06-10T14:44:26;7.68;;;6.40;;
20671;SDS011;10495;50.922;4.760;2023-06-10T14:46:52;7.20;;;6.50;;
20671;SDS011;10495;50.922;4.760;2023-06-10T14:49:18;7.05;;;6.40;;
20671;SDS011;10495;50.922;4.760;2023-06-10T14:51:43;8.15;;;7.35;;
20671;SDS011;10495;50.922;4.760;2023-06-10T14:54:09;7.10;;;6.40;;
20671;SDS011;10495;50.922;4.760;2023-06-10T14:56:35;7.80;;;7.10;;